createdAt,value
2023-02-21T10:24:57.605Z,7.26
2023-02-21T10:25:58.229Z,9.38
2023-02-21T10:26:58.208Z,14.09
2023-02-21T10:27:58.202Z,14.19
2023-02-21T10:28:58.197Z,14.41
2023-02-21T10:29:58.432Z,14.10
2023-02-21T10:30:58.283Z,14.26
2023-02-21T10:31:58.439Z,15.62
2023-02-21T10:32:58.155Z,16.66
2023-02-21T10:33:58.152Z,15.98
2023-02-21T10:34:58.138Z,14.18
2023-02-21T10:35:58.136Z,15.10
2023-02-21T10:36:58.435Z,15.21
2023-02-21T10:37:58.103Z,14.64
2023-02-21T10:38:58.093Z,13.26
2023-02-21T10:39:58.883Z,11.96
2023-02-21T10:40:58.121Z,11.91
2023-02-21T10:41:58.876Z,10.91
2023-02-21T10:42:58.057Z,11.32
2023-02-21T10:43:58.046Z,10.33
2023-02-21T10:44:58.037Z,9.69
2023-02-21T10:45:58.070Z,9.63
2023-02-21T10:46:58.378Z,8.62
2023-02-21T10:47:58.008Z,8.02
2023-02-21T10:48:58.010Z,8.09
2023-02-21T10:49:57.990Z,7.59
2023-02-21T10:50:58.520Z,6.58
2023-02-21T10:51:57.976Z,8.03
2023-02-21T10:52:58.891Z,7.08
2023-02-21T10:53:58.001Z,9.74
2023-02-21T10:54:57.948Z,6.92
2023-02-21T10:55:58.438Z,6.99
2023-02-21T10:56:57.947Z,7.20
2023-02-21T10:57:58.384Z,6.50
2023-02-21T10:58:57.906Z,7.23
2023-02-21T10:59:57.900Z,6.24
2023-02-21T11:00:57.913Z,6.64
2023-02-21T11:01:57.886Z,5.86
2023-02-21T11:02:57.891Z,5.27
2023-02-21T11:03:57.868Z,6.63
2023-02-21T11:04:57.847Z,6.09
2023-02-21T11:05:58.089Z,5.43
2023-02-21T11:06:57.839Z,5.31
2023-02-21T11:07:57.823Z,4.79
2023-02-21T11:08:57.816Z,6.27
2023-02-21T11:09:57.805Z,6.51
2023-02-21T11:10:57.794Z,5.55
2023-02-21T11:11:57.894Z,5.41
2023-02-21T11:12:57.805Z,4.38
2023-02-21T11:13:57.764Z,4.60
2023-02-21T11:14:57.768Z,5.24
2023-02-21T11:15:57.815Z,4.98
2023-02-21T11:16:57.911Z,5.06
2023-02-21T11:17:57.742Z,5.16
2023-02-21T11:18:57.919Z,5.05
2023-02-21T11:19:57.732Z,5.05
2023-02-21T11:20:57.708Z,4.32
2023-02-21T11:21:57.905Z,4.24
2023-02-21T11:22:57.686Z,4.23
2023-02-21T11:23:57.693Z,4.03
2023-02-21T11:24:57.667Z,4.17
2023-02-21T11:25:57.902Z,3.85
2023-02-21T11:26:57.919Z,4.07
2023-02-21T11:27:57.638Z,3.72
2023-02-21T11:28:58.460Z,6.42
2023-02-21T11:29:57.622Z,6.13
2023-02-21T11:30:57.667Z,7.30
2023-02-21T11:31:57.979Z,13.24
2023-02-21T11:32:57.603Z,11.52
2023-02-21T11:33:58.032Z,10.46
2023-02-21T11:34:57.581Z,9.04
2023-02-21T11:35:58.422Z,7.07
2023-02-21T11:36:57.925Z,6.87
2023-02-21T11:37:57.555Z,6.37
2023-02-21T11:38:57.926Z,6.46
2023-02-21T11:39:57.525Z,6.13
2023-02-21T11:40:57.519Z,5.58
2023-02-21T11:41:57.527Z,5.27
2023-02-21T11:42:57.503Z,5.34
2023-02-21T11:43:57.503Z,5.18
2023-02-21T11:44:57.563Z,4.91
2023-02-21T11:45:57.485Z,4.67
2023-02-21T11:46:57.915Z,4.28
2023-02-21T11:47:57.459Z,4.19
2023-02-21T11:48:57.936Z,4.23
2023-02-21T11:49:57.448Z,4.23
2023-02-21T11:50:57.431Z,4.03
2023-02-21T11:51:57.424Z,3.98
2023-02-21T11:52:57.498Z,3.77
2023-02-21T11:53:57.403Z,3.72
2023-02-21T11:54:57.397Z,3.60
2023-02-21T11:55:57.378Z,3.80
2023-02-21T11:56:57.376Z,3.27
2023-02-21T11:57:57.367Z,3.74
2023-02-21T11:58:57.921Z,4.32
2023-02-21T11:59:57.413Z,3.68
2023-02-21T12:00:59.933Z,3.76
2023-02-21T12:01:57.327Z,3.70
2023-02-21T12:02:57.316Z,3.92
2023-02-21T12:03:57.920Z,3.38
2023-02-21T12:04:57.290Z,3.88
2023-02-21T12:05:57.353Z,3.67
2023-02-21T12:06:57.292Z,3.44
2023-02-21T12:07:57.417Z,3.94
2023-02-21T12:08:57.254Z,3.25
2023-02-21T12:09:57.245Z,3.70
2023-02-21T12:10:57.241Z,3.80
2023-02-21T12:11:57.237Z,3.77
2023-02-21T12:12:57.413Z,2.78
2023-02-21T12:13:57.215Z,3.57
2023-02-21T12:14:57.452Z,4.26
2023-02-21T12:15:57.233Z,3.69
2023-02-21T12:16:59.933Z,3.85
2023-02-21T12:17:59.911Z,3.67
2023-02-21T12:18:57.166Z,3.63
2023-02-21T12:19:57.941Z,3.59
2023-02-21T12:20:57.145Z,3.58
2023-02-21T12:21:57.141Z,3.90
2023-02-21T12:22:57.116Z,3.50
2023-02-21T12:23:57.111Z,3.67
2023-02-21T12:24:57.098Z,3.96
2023-02-21T12:25:59.924Z,4.41
2023-02-21T12:26:57.085Z,3.78
2023-02-21T12:27:58.931Z,3.55
2023-02-21T12:28:59.915Z,3.96
2023-02-21T12:29:57.915Z,3.72
2023-02-21T12:30:57.166Z,3.60
2023-02-21T12:31:57.223Z,3.58
2023-02-21T12:32:57.450Z,4.28
2023-02-21T12:33:59.917Z,3.93
2023-02-21T12:34:57.926Z,3.39
2023-02-21T12:35:57.016Z,3.78
2023-02-21T12:36:57.427Z,4.28
2023-02-21T12:37:57.005Z,3.96
2023-02-21T12:38:59.936Z,3.96
2023-02-21T12:39:56.979Z,3.78
2023-02-21T12:40:57.933Z,3.55
2023-02-21T12:41:56.946Z,3.83
2023-02-21T12:43:11.925Z,3.62
2023-02-21T12:43:56.930Z,3.37
2023-02-21T12:44:59.425Z,3.02
2023-02-21T12:45:57.426Z,3.11
2023-02-21T12:46:56.893Z,3.34
2023-02-21T12:47:56.895Z,2.83
2023-02-21T12:48:57.466Z,2.57
2023-02-21T12:49:56.870Z,2.67
2023-02-21T12:50:56.860Z,2.87
2023-02-21T12:51:56.852Z,2.88
2023-02-21T12:52:56.848Z,2.70
2023-02-21T12:53:56.938Z,3.71
2023-02-21T12:54:56.824Z,3.21
2023-02-21T12:55:56.814Z,3.40
2023-02-21T12:56:56.800Z,4.55
2023-02-21T12:57:56.819Z,6.01
2023-02-21T12:58:56.941Z,4.72
2023-02-21T12:59:56.833Z,5.85
2023-02-21T13:00:56.795Z,6.40
2023-02-21T13:01:56.790Z,6.54
2023-02-21T13:02:57.050Z,6.99
2023-02-21T13:03:57.446Z,8.30
2023-02-21T13:04:56.752Z,7.59
2023-02-21T13:05:56.719Z,7.04
2023-02-21T13:06:57.442Z,8.25
2023-02-21T13:07:56.730Z,8.49
2023-02-21T13:08:56.937Z,8.06
2023-02-21T13:09:56.685Z,8.29
2023-02-21T13:10:56.846Z,7.09
2023-02-21T13:11:56.665Z,7.68
2023-02-21T13:12:56.979Z,7.81
2023-02-21T13:13:56.642Z,7.87
2023-02-21T13:14:59.439Z,7.22
2023-02-21T13:15:56.681Z,7.43
2023-02-21T13:16:56.609Z,8.49
2023-02-21T13:17:56.600Z,7.22
2023-02-21T13:18:56.592Z,6.79
2023-02-21T13:19:56.583Z,8.00
2023-02-21T13:20:56.725Z,7.41
2023-02-21T13:21:56.564Z,7.46
2023-02-21T13:22:56.550Z,7.39
2023-02-21T13:23:56.952Z,7.42
2023-02-21T13:24:56.537Z,7.36
2023-02-21T13:25:56.527Z,6.99
2023-02-21T13:26:56.513Z,7.19
2023-02-21T13:27:56.505Z,7.28
2023-02-21T13:28:56.502Z,7.12
2023-02-21T13:29:56.494Z,6.48
2023-02-21T13:30:56.542Z,6.69
2023-02-21T13:31:56.494Z,7.14
2023-02-21T13:32:56.471Z,6.71
2023-02-21T13:33:56.470Z,7.05
2023-02-21T13:34:56.440Z,6.58
2023-02-21T13:35:56.429Z,6.74
2023-02-21T13:36:56.444Z,6.32
2023-02-21T13:37:56.415Z,6.67
2023-02-21T13:38:56.435Z,6.23
2023-02-21T13:39:56.406Z,6.63
2023-02-21T13:40:56.384Z,6.45
2023-02-21T13:41:56.382Z,6.02
2023-02-21T13:42:56.362Z,5.93
2023-02-21T13:43:56.483Z,5.64
2023-02-21T13:44:56.347Z,6.32
2023-02-21T13:45:56.334Z,6.47
2023-02-21T13:46:56.396Z,6.22
2023-02-21T13:47:56.479Z,6.09
2023-02-21T13:48:56.476Z,5.32
2023-02-21T13:49:56.297Z,6.12
2023-02-21T13:50:56.303Z,5.57
2023-02-21T13:51:56.276Z,5.59
2023-02-21T13:52:56.301Z,6.47
2023-02-21T13:53:57.143Z,5.38
2023-02-21T13:54:56.251Z,5.52
2023-02-21T13:55:56.242Z,4.97
2023-02-21T13:56:56.237Z,6.00
2023-02-21T13:57:56.956Z,6.04
2023-02-21T13:58:56.213Z,5.63
2023-02-21T13:59:56.459Z,6.17
2023-02-21T14:00:56.311Z,6.54
2023-02-21T14:01:56.192Z,5.35
2023-02-21T14:02:56.188Z,5.17
2023-02-21T14:03:56.203Z,5.51
2023-02-21T14:04:56.484Z,6.14
2023-02-21T14:05:56.152Z,5.77
2023-02-21T14:06:56.154Z,5.81
2023-02-21T14:07:56.279Z,5.64
2023-02-21T14:08:57.098Z,6.00
2023-02-21T14:09:56.457Z,5.86
2023-02-21T14:10:58.950Z,5.23
2023-02-21T14:11:56.087Z,5.42
2023-02-21T14:12:56.083Z,5.89
2023-02-21T14:13:56.076Z,5.98
2023-02-21T14:14:56.464Z,5.51
2023-02-21T14:15:56.053Z,4.97
2023-02-21T14:16:56.038Z,5.59
2023-02-21T14:17:56.032Z,5.26
2023-02-21T14:18:56.023Z,5.39
2023-02-21T14:19:57.242Z,5.15
2023-02-21T14:20:56.020Z,6.39
2023-02-21T14:21:58.956Z,4.90
2023-02-21T14:22:55.985Z,5.62
2023-02-21T14:23:55.976Z,5.13
2023-02-21T14:24:55.997Z,4.64
2023-02-21T14:25:57.895Z,5.29
2023-02-21T14:26:55.965Z,5.73
2023-02-21T14:27:55.956Z,5.12
2023-02-21T14:28:55.933Z,5.00
2023-02-21T14:29:55.986Z,4.88
2023-02-21T14:30:55.909Z,5.92
2023-02-21T14:31:56.064Z,5.56
2023-02-21T14:32:55.910Z,5.49
2023-02-21T14:33:55.889Z,5.24
2023-02-21T14:34:55.936Z,5.13
2023-02-21T14:35:55.870Z,5.35
2023-02-21T14:36:55.853Z,4.87
2023-02-21T14:37:56.008Z,5.25
2023-02-21T14:38:55.838Z,5.05
2023-02-21T14:39:55.832Z,4.98
2023-02-21T14:40:55.840Z,4.88
2023-02-21T14:41:55.809Z,5.33
2023-02-21T14:42:56.056Z,5.92
2023-02-21T14:43:56.189Z,5.07
2023-02-21T14:44:56.003Z,5.40
2023-02-21T14:45:55.893Z,5.82
2023-02-21T14:46:55.760Z,5.31
2023-02-21T14:47:55.759Z,4.96
2023-02-21T14:48:55.975Z,5.01
2023-02-21T14:49:55.737Z,4.61
2023-02-21T14:50:56.094Z,5.12
2023-02-21T14:51:55.748Z,5.70
2023-02-21T14:52:55.706Z,4.75
2023-02-21T14:53:55.708Z,5.56
2023-02-21T14:54:55.698Z,5.60
2023-02-21T14:55:56.000Z,4.50
2023-02-21T14:56:56.496Z,5.04
2023-02-21T14:57:55.661Z,5.17
2023-02-21T14:58:55.648Z,5.51
2023-02-21T14:59:55.687Z,4.70
2023-02-21T15:00:56.982Z,4.94
2023-02-21T15:01:55.628Z,4.52
2023-02-21T15:02:55.620Z,5.25
2023-02-21T15:03:55.681Z,5.01
2023-02-21T15:04:55.603Z,4.78
2023-02-21T15:05:56.480Z,4.80
2023-02-21T15:06:55.575Z,4.66
2023-02-21T15:07:55.563Z,4.63
2023-02-21T15:08:55.551Z,4.98
2023-02-21T15:09:55.545Z,4.38
2023-02-21T15:10:55.534Z,3.99
2023-02-21T15:11:55.561Z,5.16
2023-02-21T15:12:56.540Z,5.30
2023-02-21T15:13:55.506Z,4.98
2023-02-21T15:14:55.501Z,4.48
2023-02-21T15:15:55.490Z,4.33
2023-02-21T15:16:55.575Z,4.65
2023-02-21T15:17:55.503Z,4.82
2023-02-21T15:18:55.976Z,4.64
2023-02-21T15:19:55.458Z,4.90
2023-02-21T15:20:55.502Z,5.21
2023-02-21T15:22:01.996Z,4.02
2023-02-21T15:22:55.449Z,4.56
2023-02-21T15:23:55.414Z,4.28
2023-02-21T15:24:55.978Z,5.00
2023-02-21T15:25:55.514Z,4.71
2023-02-21T15:26:55.389Z,4.93
2023-02-21T15:27:55.394Z,4.61
2023-02-21T15:28:55.396Z,4.51
2023-02-21T15:30:02.064Z,4.92
2023-02-21T15:30:55.594Z,4.79
2023-02-21T15:31:56.011Z,4.36
2023-02-21T15:32:55.329Z,5.09
2023-02-21T15:33:56.002Z,4.45
2023-02-21T15:34:55.309Z,4.42
2023-02-21T15:35:55.298Z,4.23
2023-02-21T15:36:55.319Z,4.59
2023-02-21T15:37:55.280Z,4.53
2023-02-21T15:38:57.983Z,4.40
2023-02-21T15:39:55.802Z,4.23
2023-02-21T15:40:55.267Z,4.40
2023-02-21T15:41:55.240Z,4.08
2023-02-21T15:42:55.223Z,4.49
2023-02-21T15:43:55.237Z,4.19
2023-02-21T15:44:55.232Z,4.51
2023-02-21T15:45:55.312Z,4.72
2023-02-21T15:46:55.231Z,4.88
2023-02-21T15:47:55.980Z,4.82
2023-02-21T15:48:55.172Z,4.06
2023-02-21T15:49:55.162Z,4.19
2023-02-21T15:50:55.154Z,4.45
2023-02-21T15:51:55.168Z,4.26
2023-02-21T15:52:58.005Z,3.86
2023-02-21T15:53:55.990Z,4.27
2023-02-21T15:54:55.992Z,3.59
2023-02-21T15:55:55.359Z,3.99
2023-02-21T15:56:55.502Z,3.89
2023-02-21T15:57:55.341Z,4.08
2023-02-21T15:58:55.325Z,4.60
2023-02-21T15:59:55.314Z,4.12
2023-02-21T16:00:55.416Z,3.65
2023-02-21T16:01:55.497Z,4.49
2023-02-21T16:02:55.353Z,4.10
2023-02-21T16:03:55.284Z,4.25
2023-02-21T16:04:55.272Z,4.29
2023-02-21T16:05:55.258Z,3.57
2023-02-21T16:06:55.506Z,3.97
2023-02-21T16:07:55.241Z,4.50
2023-02-21T16:08:55.236Z,4.24
2023-02-21T16:10:01.998Z,3.99
2023-02-21T16:10:55.222Z,4.41
2023-02-21T16:11:55.204Z,4.36
2023-02-21T16:12:57.993Z,3.73
2023-02-21T16:13:55.238Z,3.89
2023-02-21T16:14:55.996Z,3.82
2023-02-21T16:16:02.146Z,4.03
2023-02-21T16:16:55.155Z,4.45
2023-02-21T16:17:56.001Z,4.15
2023-02-21T16:18:55.144Z,3.84
2023-02-21T16:19:55.137Z,3.89
2023-02-21T16:20:55.120Z,3.81
2023-02-21T16:21:55.502Z,3.81
2023-02-21T16:23:08.148Z,3.71
2023-02-21T16:23:55.096Z,4.09
2023-02-21T16:24:56.394Z,3.94
2023-02-21T16:25:55.999Z,3.50
2023-02-21T16:26:55.505Z,4.35
2023-02-21T16:27:55.292Z,3.87
2023-02-21T16:28:55.276Z,4.10
2023-02-21T16:29:55.268Z,3.93
2023-02-21T16:31:02.093Z,4.07
2023-02-21T16:31:56.206Z,3.54
2023-02-21T16:32:55.248Z,4.42
2023-02-21T16:33:55.235Z,4.05
2023-02-21T16:34:55.283Z,3.78
2023-02-21T16:35:55.212Z,3.47
2023-02-21T16:36:58.008Z,3.34
2023-02-21T16:37:55.194Z,3.97
2023-02-21T16:38:55.184Z,3.73
2023-02-21T16:39:55.179Z,3.32
2023-02-21T16:41:02.000Z,3.62
2023-02-21T16:41:55.162Z,3.80
2023-02-21T16:42:55.147Z,3.75
2023-02-21T16:43:55.138Z,3.64
2023-02-21T16:44:55.140Z,3.32
2023-02-21T16:45:55.158Z,3.73
2023-02-21T16:46:55.108Z,4.07
2023-02-21T16:47:55.134Z,3.73
2023-02-21T16:48:55.092Z,3.82
2023-02-21T16:49:55.084Z,3.80
2023-02-21T16:51:02.006Z,3.47
2023-02-21T16:51:55.073Z,3.64
2023-02-21T16:52:55.059Z,3.96
2023-02-21T16:53:55.047Z,3.34
2023-02-21T16:54:55.523Z,3.47
2023-02-21T16:55:58.013Z,3.96
2023-02-21T16:56:55.020Z,3.94
2023-02-21T16:57:55.012Z,3.47
2023-02-21T16:58:55.004Z,3.84
2023-02-21T16:59:54.994Z,3.22
2023-02-21T17:00:54.982Z,3.67
2023-02-21T17:01:55.013Z,3.91
2023-02-21T17:02:55.627Z,3.89
2023-02-21T17:03:54.982Z,3.64
2023-02-21T17:04:54.949Z,3.97
2023-02-21T17:05:54.939Z,3.63
2023-02-21T17:06:54.935Z,3.60
2023-02-21T17:07:54.930Z,3.42
2023-02-21T17:08:54.913Z,3.66
2023-02-21T17:09:54.936Z,3.91
2023-02-21T17:10:54.946Z,3.82
2023-02-21T17:11:54.876Z,3.32
2023-02-21T17:12:55.029Z,3.28
2023-02-21T17:13:54.868Z,3.73
2023-02-21T17:14:54.849Z,3.26
2023-02-21T17:15:55.074Z,3.80
2023-02-21T17:16:56.572Z,3.58
2023-02-21T17:17:55.100Z,3.71
2023-02-21T17:19:02.047Z,3.81
2023-02-21T17:19:58.021Z,3.63
2023-02-21T17:20:55.521Z,3.19
2023-02-21T17:21:55.027Z,3.39
2023-02-21T17:22:55.019Z,3.31
2023-02-21T17:23:54.992Z,3.55
2023-02-21T17:24:55.519Z,3.78
2023-02-21T17:25:54.973Z,3.37
2023-02-21T17:26:55.530Z,3.25
2023-02-21T17:27:55.033Z,3.28
2023-02-21T17:28:55.036Z,3.55
2023-02-21T17:29:54.938Z,3.19
2023-02-21T17:30:54.987Z,3.41
2023-02-21T17:31:54.939Z,3.65
2023-02-21T17:32:54.909Z,3.58
2023-02-21T17:33:54.908Z,3.43
2023-02-21T17:34:54.915Z,3.55
2023-02-21T17:35:54.877Z,3.68
2023-02-21T17:36:55.032Z,3.67
2023-02-21T17:37:54.863Z,3.75
2023-02-21T17:38:56.327Z,3.22
2023-02-21T17:39:54.847Z,3.47
2023-02-21T17:40:54.835Z,3.22
2023-02-21T17:41:54.827Z,2.99
2023-02-21T17:42:54.813Z,3.39
2023-02-21T17:43:55.531Z,3.42
2023-02-21T17:45:01.578Z,3.52
2023-02-21T17:45:54.789Z,3.50
2023-02-21T17:46:54.777Z,3.41
2023-02-21T17:47:54.780Z,3.33
2023-02-21T17:48:54.772Z,3.79
2023-02-21T17:49:54.899Z,3.39
2023-02-21T17:50:54.760Z,3.61
2023-02-21T17:51:54.733Z,3.51
2023-02-21T17:52:55.531Z,3.56
2023-02-21T17:53:54.728Z,3.62
2023-02-21T17:54:54.703Z,3.61
2023-02-21T17:55:54.689Z,3.75
2023-02-21T17:56:54.683Z,3.63
2023-02-21T17:57:55.539Z,2.62
2023-02-21T17:58:54.665Z,3.31
2023-02-21T17:59:54.801Z,3.09
2023-02-21T18:00:55.558Z,3.40
2023-02-21T18:01:54.735Z,3.10
2023-02-21T18:03:15.625Z,3.51
2023-02-21T18:03:55.537Z,3.39
2023-02-21T18:04:54.685Z,3.58
2023-02-21T18:05:54.610Z,3.31
2023-02-21T18:06:54.622Z,3.37
2023-02-21T18:07:54.579Z,3.34
2023-02-21T18:08:54.575Z,3.52
2023-02-21T18:09:55.048Z,3.75
2023-02-21T18:10:54.551Z,3.02
2023-02-21T18:11:54.543Z,3.18
2023-02-21T18:12:54.573Z,3.47
2023-02-21T18:13:54.522Z,3.18
2023-02-21T18:14:54.519Z,2.82
2023-02-21T18:15:54.529Z,3.19
2023-02-21T18:16:54.499Z,3.40
2023-02-21T18:17:54.492Z,3.45
2023-02-21T18:18:54.474Z,3.47
2023-02-21T18:19:54.472Z,3.07
2023-02-21T18:20:57.060Z,3.09
2023-02-21T18:21:57.070Z,2.81
2023-02-21T18:22:54.561Z,3.18
2023-02-21T18:23:54.435Z,3.51
2023-02-21T18:24:54.416Z,3.58
2023-02-21T18:25:55.052Z,3.19
2023-02-21T18:26:54.418Z,3.59
2023-02-21T18:27:54.393Z,3.34
2023-02-21T18:28:54.385Z,3.48
2023-02-21T18:29:54.421Z,3.76
2023-02-21T18:30:54.363Z,3.48
2023-02-21T18:31:54.655Z,3.61
2023-02-21T18:32:54.558Z,2.63
2023-02-21T18:33:55.065Z,3.48
2023-02-21T18:34:54.328Z,3.40
2023-02-21T18:36:01.054Z,3.16
2023-02-21T18:36:54.313Z,3.34
2023-02-21T18:37:54.329Z,3.47
2023-02-21T18:38:57.054Z,3.56
2023-02-21T18:39:54.280Z,3.12
2023-02-21T18:40:54.276Z,3.29
2023-02-21T18:41:57.060Z,2.69
2023-02-21T18:42:54.255Z,3.66
2023-02-21T18:43:54.251Z,3.27
2023-02-21T18:44:54.237Z,3.36
2023-02-21T18:45:54.245Z,3.33
2023-02-21T18:46:54.366Z,3.59
2023-02-21T18:47:54.211Z,3.42
2023-02-21T18:48:54.211Z,3.36
2023-02-21T18:49:56.367Z,3.27
2023-02-21T18:50:54.192Z,3.42
2023-02-21T18:51:54.171Z,3.70
2023-02-21T18:52:54.160Z,2.80
2023-02-21T18:53:54.180Z,3.35
2023-02-21T18:54:54.142Z,3.66
2023-02-21T18:55:54.138Z,3.58
2023-02-21T18:57:01.069Z,3.53
2023-02-21T18:58:09.063Z,3.54
2023-02-21T18:58:54.108Z,3.65
2023-02-21T18:59:54.105Z,3.20
2023-02-21T19:00:54.131Z,3.12
2023-02-21T19:01:54.074Z,3.46
2023-02-21T19:02:54.067Z,2.87
2023-02-21T19:04:54.050Z,2.78
2023-02-21T19:05:54.040Z,3.51
2023-02-21T19:06:54.566Z,3.34
2023-02-21T19:07:54.572Z,3.56
2023-02-21T19:08:54.012Z,2.89
2023-02-21T19:10:08.603Z,3.42
2023-02-21T19:10:53.997Z,3.13
2023-02-21T19:12:53.970Z,3.10
2023-02-21T19:13:54.114Z,3.17
2023-02-21T19:14:54.568Z,3.04
2023-02-21T19:15:54.566Z,3.13
2023-02-21T19:16:53.938Z,3.55
2023-02-21T19:17:53.923Z,3.33
2023-02-21T19:18:53.919Z,3.15
2023-02-21T19:19:53.918Z,3.27
2023-02-21T19:20:53.894Z,2.86
2023-02-21T19:22:08.572Z,2.91
2023-02-21T19:22:53.877Z,3.05
2023-02-21T19:23:53.864Z,3.07
2023-02-21T19:24:53.865Z,3.32
2023-02-21T19:25:56.598Z,3.18
2023-02-21T19:26:53.961Z,3.44
2023-02-21T19:27:53.829Z,3.34
2023-02-21T19:28:53.819Z,3.09
2023-02-21T19:29:53.813Z,3.50
2023-02-21T19:30:53.813Z,3.31
2023-02-21T19:31:53.902Z,2.56
2023-02-21T19:33:08.591Z,2.98
2023-02-21T19:33:53.776Z,3.00
2023-02-21T19:34:53.770Z,3.05
2023-02-21T19:35:53.765Z,3.24
2023-02-21T19:36:53.745Z,3.33
2023-02-21T19:38:00.574Z,2.80
2023-02-21T19:38:54.579Z,3.44
2023-02-21T19:39:53.761Z,3.44
2023-02-21T19:40:53.710Z,3.29
2023-02-21T19:41:53.741Z,2.60
2023-02-21T19:42:53.686Z,3.21
2023-02-21T19:43:54.091Z,3.05
2023-02-21T19:44:53.675Z,3.06
2023-02-21T19:45:53.675Z,3.60
2023-02-21T19:46:53.647Z,2.77
2023-02-21T19:47:53.640Z,2.96
2023-02-21T19:48:53.640Z,3.34
2023-02-21T19:49:53.622Z,2.86
2023-02-21T19:50:53.610Z,3.07
2023-02-21T19:51:53.621Z,3.31
2023-02-21T19:52:53.591Z,3.55
2023-02-21T19:53:54.589Z,3.25
2023-02-21T19:54:53.572Z,2.75
2023-02-21T19:56:08.081Z,3.40
2023-02-21T19:56:53.554Z,3.47
2023-02-21T19:57:53.583Z,3.85
2023-02-21T19:58:53.543Z,3.37
2023-02-21T19:59:54.098Z,3.28
2023-02-21T20:00:53.710Z,3.49
2023-02-21T20:01:53.506Z,3.84
2023-02-21T20:02:53.502Z,3.31
2023-02-21T20:03:53.592Z,3.48
2023-02-21T20:04:53.478Z,3.39
2023-02-21T20:05:53.474Z,3.09
2023-02-21T20:06:53.471Z,2.84
2023-02-21T20:07:53.464Z,3.70
2023-02-21T20:08:53.442Z,3.60
2023-02-21T20:09:53.594Z,3.12
2023-02-21T20:10:53.420Z,3.45
2023-02-21T20:11:53.590Z,3.19
2023-02-21T20:12:53.404Z,3.21
2023-02-21T20:13:53.422Z,3.30
2023-02-21T20:14:53.384Z,3.42
2023-02-21T20:15:53.379Z,3.02
2023-02-21T20:16:53.526Z,3.19
2023-02-21T20:17:53.394Z,2.99
2023-02-21T20:18:53.598Z,2.93
2023-02-21T20:19:53.602Z,3.25
2023-02-21T20:20:53.335Z,2.93
2023-02-21T20:21:53.604Z,2.72
2023-02-21T20:22:54.091Z,2.74
2023-02-21T20:23:53.303Z,3.76
2023-02-21T20:24:54.099Z,3.47
2023-02-21T20:25:53.286Z,3.17
2023-02-21T20:26:53.277Z,3.54
2023-02-21T20:27:53.269Z,3.13
2023-02-21T20:28:53.258Z,3.04
2023-02-21T20:29:54.118Z,2.86
2023-02-21T20:30:54.224Z,3.40
2023-02-21T20:31:53.297Z,2.91
2023-02-21T20:32:53.221Z,3.30
2023-02-21T20:33:56.096Z,3.25
2023-02-21T20:34:53.213Z,3.28
2023-02-21T20:35:53.195Z,3.48
2023-02-21T20:36:54.100Z,3.13
2023-02-21T20:37:53.175Z,3.22
2023-02-21T20:39:08.103Z,3.77
2023-02-21T20:39:53.156Z,3.52
2023-02-21T20:40:53.144Z,2.99
2023-02-21T20:41:53.132Z,3.24
2023-02-21T20:42:53.603Z,2.84
2023-02-21T20:43:53.131Z,2.79
2023-02-21T20:44:54.122Z,2.84
2023-02-21T20:45:59.748Z,2.98
2023-02-21T20:46:53.097Z,3.13
2023-02-21T20:47:53.090Z,3.05
2023-02-21T20:48:59.601Z,3.33
2023-02-21T20:49:53.603Z,2.96
2023-02-21T20:50:53.601Z,2.70
2023-02-21T20:51:53.064Z,3.60
2023-02-21T20:52:53.039Z,2.73
2023-02-21T20:53:53.020Z,3.26
2023-02-21T20:54:53.017Z,2.94
2023-02-21T20:55:53.006Z,3.34
2023-02-21T20:56:52.991Z,3.32
2023-02-21T20:57:53.000Z,3.14
2023-02-21T20:58:52.973Z,3.35
2023-02-21T20:59:52.964Z,2.98
2023-02-21T21:00:52.961Z,3.14
2023-02-21T21:01:53.006Z,2.87
2023-02-21T21:02:52.986Z,2.96
2023-02-21T21:03:53.610Z,3.36
2023-02-21T21:04:52.915Z,3.26
2023-02-21T21:05:53.606Z,3.24
2023-02-21T21:06:52.905Z,2.30
2023-02-21T21:07:52.887Z,3.29
2023-02-21T21:08:51.877Z,3.02
2023-02-21T21:09:52.870Z,2.98
2023-02-21T21:10:52.959Z,3.26
2023-02-21T21:11:52.855Z,3.16
2023-02-21T21:12:52.842Z,3.38
2023-02-21T21:13:52.832Z,3.60
2023-02-21T21:14:52.822Z,3.09
2023-02-21T21:15:52.887Z,3.56
2023-02-21T21:17:52.822Z,3.47
2023-02-21T21:18:53.613Z,3.50
2023-02-21T21:19:52.814Z,3.02
2023-02-21T21:21:14.034Z,2.59
2023-02-21T21:21:52.758Z,3.08
2023-02-21T21:22:52.748Z,2.99
2023-02-21T21:25:52.730Z,2.69
2023-02-21T21:27:52.714Z,3.05
2023-02-21T21:28:53.615Z,3.58
2023-02-21T21:29:52.684Z,3.06
2023-02-21T21:30:52.679Z,3.24
2023-02-21T21:31:52.712Z,2.98
2023-02-21T21:32:52.655Z,2.55
2023-02-21T21:34:13.685Z,3.17
2023-02-21T21:34:59.621Z,2.86
2023-02-21T21:35:55.631Z,3.22
2023-02-21T21:36:52.616Z,3.23
2023-02-21T21:37:52.610Z,3.02
2023-02-21T21:38:52.604Z,3.00
2023-02-21T21:39:52.590Z,2.60
2023-02-21T21:40:52.580Z,3.00
2023-02-21T21:41:53.119Z,3.09
2023-02-21T21:42:52.565Z,2.85
2023-02-21T21:43:52.567Z,3.63
2023-02-21T21:44:52.542Z,2.86
2023-02-21T21:45:52.630Z,3.12
2023-02-21T21:47:13.664Z,2.86
2023-02-21T21:47:52.519Z,2.75
2023-02-21T21:48:52.505Z,2.69
2023-02-21T21:49:52.520Z,2.96
2023-02-21T21:50:52.484Z,2.61
2023-02-21T21:51:52.474Z,3.21
2023-02-21T21:52:52.481Z,3.18
2023-02-21T21:53:52.457Z,3.28
2023-02-21T21:54:52.460Z,3.13
2023-02-21T21:56:07.129Z,3.16
2023-02-21T21:56:59.126Z,2.95
2023-02-21T21:57:52.456Z,3.08
2023-02-21T21:58:52.422Z,2.95
2023-02-21T21:59:52.398Z,2.96
2023-02-21T22:00:52.388Z,3.29
2023-02-21T22:01:52.415Z,3.15
2023-02-21T22:02:52.485Z,2.77
2023-02-21T22:03:52.366Z,3.07
2023-02-21T22:04:53.162Z,2.80
2023-02-21T22:05:52.377Z,3.14
2023-02-21T22:06:52.333Z,3.01
2023-02-21T22:07:52.352Z,3.18
2023-02-21T22:08:52.317Z,3.15
2023-02-21T22:09:52.304Z,3.07
2023-02-21T22:10:52.310Z,2.70
2023-02-21T22:11:52.297Z,2.61
2023-02-21T22:13:52.278Z,3.04
2023-02-21T22:14:52.260Z,3.16
2023-02-21T22:15:52.298Z,2.64
2023-02-21T22:16:52.239Z,3.41
2023-02-21T22:17:52.233Z,2.80
2023-02-21T22:18:52.695Z,2.61
2023-02-21T22:19:52.220Z,3.12
2023-02-21T22:20:52.206Z,2.77
2023-02-21T22:21:52.224Z,3.00
2023-02-21T22:22:52.184Z,3.05
2023-02-21T22:23:52.179Z,3.10
2023-02-21T22:24:52.171Z,2.38
2023-02-21T22:25:52.203Z,2.93
2023-02-21T22:26:52.152Z,2.78
2023-02-21T22:27:52.142Z,3.47
2023-02-21T22:28:52.160Z,2.74
2023-02-21T22:29:52.131Z,2.76
2023-02-21T22:30:52.121Z,2.74
2023-02-21T22:31:52.553Z,2.99
2023-02-21T22:32:52.138Z,3.05
2023-02-21T22:34:52.068Z,3.08
2023-02-21T22:35:52.068Z,2.72
2023-02-21T22:36:52.642Z,2.69
2023-02-21T22:37:52.073Z,2.99
2023-02-21T22:38:52.138Z,2.96
2023-02-21T22:39:52.634Z,2.76
2023-02-21T22:40:52.025Z,3.04
2023-02-21T22:41:52.640Z,3.30
2023-02-21T22:42:51.998Z,3.03
2023-02-21T22:43:51.985Z,2.70
2023-02-21T22:44:51.973Z,2.88
2023-02-21T22:45:51.968Z,2.83
2023-02-21T22:46:51.975Z,2.89
2023-02-21T22:47:51.987Z,2.64
2023-02-21T22:48:51.941Z,2.43
2023-02-21T22:49:51.931Z,2.63
2023-02-21T22:50:51.929Z,2.66
2023-02-21T22:51:51.947Z,2.50
2023-02-21T22:52:51.904Z,3.15
2023-02-21T22:53:52.661Z,2.88
2023-02-21T22:54:51.918Z,2.66
2023-02-21T22:55:52.754Z,2.91
2023-02-21T22:56:51.915Z,2.58
2023-02-21T22:57:52.647Z,2.93
2023-02-21T22:58:52.639Z,2.47
2023-02-21T22:59:51.877Z,2.65
2023-02-21T23:00:51.862Z,2.45
2023-02-21T23:01:51.869Z,2.58
2023-02-21T23:02:52.799Z,2.52
2023-02-21T23:03:51.832Z,2.91
2023-02-21T23:04:51.868Z,2.95
2023-02-21T23:05:51.828Z,2.90
2023-02-21T23:06:51.802Z,2.85
2023-02-21T23:07:51.797Z,2.93
2023-02-21T23:08:52.643Z,3.12
2023-02-21T23:09:51.806Z,2.64
2023-02-21T23:10:51.818Z,2.54
2023-02-21T23:11:51.760Z,3.03
2023-02-21T23:12:52.658Z,3.37
2023-02-21T23:13:52.644Z,2.99
2023-02-21T23:14:52.653Z,2.75
2023-02-21T23:15:52.866Z,2.76
2023-02-21T23:16:51.766Z,3.08
2023-02-21T23:17:51.724Z,2.77
2023-02-21T23:18:51.693Z,2.92
2023-02-21T23:19:51.696Z,2.25
2023-02-21T23:20:51.673Z,2.90
2023-02-21T23:21:52.202Z,2.87
2023-02-21T23:22:51.656Z,2.78
2023-02-21T23:23:51.650Z,2.57
2023-02-21T23:24:52.146Z,2.72
2023-02-21T23:25:51.646Z,3.17
2023-02-21T23:26:51.620Z,3.51
2023-02-21T23:27:51.654Z,2.94
2023-02-21T23:28:51.598Z,2.57
2023-02-21T23:29:51.590Z,2.89
2023-02-21T23:30:51.654Z,2.76
2023-02-21T23:31:52.339Z,2.51
2023-02-21T23:32:51.563Z,2.87
2023-02-21T23:33:51.553Z,3.09
2023-02-21T23:34:51.659Z,2.48
2023-02-21T23:35:51.537Z,3.05
2023-02-21T23:36:51.524Z,2.38
2023-02-21T23:37:51.661Z,2.78
2023-02-21T23:38:51.510Z,2.96
2023-02-21T23:39:51.494Z,2.68
2023-02-21T23:40:51.489Z,2.70
2023-02-21T23:41:51.513Z,2.34
2023-02-21T23:42:51.668Z,2.63
2023-02-21T23:43:51.454Z,2.71
2023-02-21T23:44:51.450Z,3.11
2023-02-21T23:45:51.448Z,2.96
2023-02-21T23:46:51.530Z,2.78
2023-02-21T23:47:51.667Z,2.20
2023-02-21T23:48:51.417Z,2.54
2023-02-21T23:49:51.406Z,2.81